Terminal Aerodrome Forecast
Issued by NWS Portland, OR

Home | Current Version | Previous Version | Text Only | Print | Product List | Glossary On
Versions: 1 2 3 4 5 6 7 8 9 10 11 12 13 14 15 16
000
FTUS46 KPQR 211336 AAA
TAFEUG
TAF AMD
KEUG 211336Z 2114/2212 18014KT P6SM -RA BKN035 OVC040
     FM211500 18015KT 6SM -RA OVC025
     FM211800 18017G23KT 4SM -RA BR SCT015 OVC025
     FM220400 18022G30KT P6SM -RA BKN025 OVC050=

USA.gov is the U.S. government's official web portal to all federal, state and local government web resources and services.